Time;durP1;ratioP1;P1;durP2;ratioP2;P2;SDS_P1;SDS_P2;PMS_P1;PMS_P2;Temp;Humidity;BMP_temperature;BMP_pressure;BME280_temperature;BME280_humidity;BME280_pressure;Samples;Min_cycle;Max_cycle;Signal;HPM_P1;HPM_P2
2023/06/18 00:00:58;;;;;;;8.25;4.35;;;16.50;98.00;;;;;;5024005;28;20030;-74
2023/06/18 00:03:25;;;;;;;10.63;4.70;;;16.50;98.20;;;;;;5018667;28;20036;-75
2023/06/18 00:05:55;;;;;;;9.00;4.90;;;16.40;98.20;;;;;;5001123;28;20116;-75
2023/06/18 00:08:23;;;;;;;8.57;4.73;;;16.40;98.50;;;;;;5018418;28;20033;-76
2023/06/18 00:10:49;;;;;;;6.93;4.22;;;16.30;99.00;;;;;;5018470;28;20038;-71
2023/06/18 00:13:15;;;;;;;8.98;4.88;;;16.30;99.30;;;;;;5018603;28;20068;-76
2023/06/18 00:15:41;;;;;;;6.47;4.57;;;16.30;99.70;;;;;;5018197;28;20112;-74
2023/06/18 00:18:07;;;;;;;8.40;4.45;;;16.30;99.90;;;;;;5017953;28;20029;-75
2023/06/18 00:20:32;;;;;;;9.05;4.40;;;16.30;99.90;;;;;;5017473;28;20067;-74
2023/06/18 00:22:59;;;;;;;8.15;4.97;;;16.30;99.90;;;;;;5000384;28;20543;-74
2023/06/18 00:25:25;;;;;;;10.02;5.60;;;16.30;99.90;;;;;;5017832;28;20028;-74
2023/06/18 00:27:51;;;;;;;10.48;5.40;;;16.20;99.90;;;;;;5018121;28;20014;-75
2023/06/18 00:30:16;;;;;;;9.00;5.00;;;16.10;99.90;;;;;;5000458;28;20018;-76
2023/06/18 00:32:44;;;;;;;8.20;5.18;;;16.10;99.90;;;;;;5015043;28;20093;-74
2023/06/18 00:35:17;;;;;;;9.43;5.38;;;16.00;99.90;;;;;;5014935;28;20375;-75
2023/06/18 00:37:43;;;;;;;8.27;4.70;;;16.00;99.90;;;;;;4996753;28;20030;-75
2023/06/18 00:40:13;;;;;;;10.30;5.38;;;16.00;99.90;;;;;;5013982;28;20034;-75
2023/06/18 00:42:39;;;;;;;8.85;4.88;;;16.00;99.90;;;;;;5014422;28;20424;-76
2023/06/18 00:45:09;;;;;;;6.70;5.38;;;16.00;99.90;;;;;;4996745;28;20056;-75
2023/06/18 00:47:44;;;;;;;9.90;4.63;;;16.00;99.90;;;;;;4996697;28;20057;-76
2023/06/18 00:50:15;;;;;;;9.10;5.25;;;15.90;99.90;;;;;;5014535;28;20041;-74
2023/06/18 00:52:44;;;;;;;14.85;5.15;;;15.90;99.90;;;;;;5015321;28;20117;-75
2023/06/18 00:55:16;;;;;;;8.07;5.82;;;15.90;99.90;;;;;;5014052;28;20026;-75
2023/06/18 00:57:49;;;;;;;10.30;5.75;;;15.90;99.90;;;;;;5014397;28;20502;-75
2023/06/18 01:00:16;;;;;;;9.77;5.70;;;15.80;99.90;;;;;;4996616;28;20045;-75
2023/06/18 01:02:45;;;;;;;10.63;5.25;;;15.80;99.90;;;;;;5013738;28;20045;-75
2023/06/18 01:05:13;;;;;;;10.63;5.80;;;15.70;99.90;;;;;;5013796;28;20014;-75
2023/06/18 01:07:41;;;;;;;12.75;5.78;;;15.70;99.90;;;;;;5014136;28;20044;-74
2023/06/18 01:10:07;;;;;;;9.15;5.18;;;15.60;99.90;;;;;;5013481;28;20122;-75
2023/06/18 01:12:33;;;;;;;10.68;5.47;;;15.60;99.90;;;;;;5013535;28;20033;-74
2023/06/18 01:14:59;;;;;;;11.23;5.80;;;15.50;99.90;;;;;;5013598;28;20025;-73
2023/06/18 01:17:33;;;;;;;8.90;5.70;;;15.60;99.90;;;;;;5014523;28;20380;-73
2023/06/18 01:20:10;;;;;;;8.27;5.78;;;15.60;99.90;;;;;;5008276;28;20050;-76
2023/06/18 01:22:57;;;;;;;8.60;5.60;;;15.60;99.90;;;;;;4976514;28;20018;-75
2023/06/18 01:25:26;;;;;;;11.60;6.22;;;15.60;99.90;;;;;;4994308;28;20145;-73
2023/06/18 01:27:53;;;;;;;8.90;5.70;;;15.50;99.90;;;;;;4994711;28;20026;-75
2023/06/18 01:30:20;;;;;;;10.75;6.60;;;15.50;99.90;;;;;;4994152;28;20061;-74
2023/06/18 01:32:46;;;;;;;9.73;6.22;;;15.50;99.90;;;;;;4993790;28;20105;-74
2023/06/18 01:35:15;;;;;;;7.90;5.50;;;15.50;99.90;;;;;;4994108;28;20481;-74
2023/06/18 01:38:02;;;;;;;10.43;6.00;;;15.60;99.90;;;;;;5009248;28;20040;-74
2023/06/18 01:40:40;;;;;;;10.98;6.22;;;15.60;99.90;;;;;;4994120;28;20053;-73
2023/06/18 01:43:12;;;;;;;11.27;6.45;;;15.60;99.90;;;;;;4993281;28;20019;-75
2023/06/18 01:45:49;;;;;;;8.15;5.88;;;15.60;99.90;;;;;;4993173;28;20026;-75
2023/06/18 01:48:20;;;;;;;10.23;6.38;;;15.60;99.90;;;;;;4993469;28;20037;-74
2023/06/18 01:50:48;;;;;;;8.98;6.22;;;15.60;99.90;;;;;;4976527;28;20076;-73
2023/06/18 01:53:16;;;;;;;10.82;6.45;;;15.60;99.90;;;;;;4993606;28;20097;-74
2023/06/18 01:55:44;;;;;;;9.30;6.03;;;15.60;99.90;;;;;;4993294;28;20019;-73
2023/06/18 01:58:14;;;;;;;7.35;5.60;;;15.60;99.90;;;;;;4993681;28;20030;-73
2023/06/18 02:00:41;;;;;;;10.80;6.05;;;15.60;99.90;;;;;;4993663;28;20030;-73
2023/06/18 02:03:07;;;;;;;9.73;5.75;;;15.60;99.90;;;;;;4993627;28;20030;-75
2023/06/18 02:05:33;;;;;;;9.75;5.93;;;15.60;99.90;;;;;;4993313;28;20022;-74
2023/06/18 02:07:58;;;;;;;8.27;5.88;;;15.50;99.90;;;;;;4993349;28;20022;-74
2023/06/18 02:10:24;;;;;;;11.95;5.93;;;15.50;99.90;;;;;;4993166;28;20034;-74
2023/06/18 02:12:50;;;;;;;10.15;5.70;;;15.50;99.90;;;;;;4991635;28;20026;-73
2023/06/18 02:15:16;;;;;;;11.85;5.80;;;15.50;99.90;;;;;;4993068;28;20085;-74
2023/06/18 02:17:43;;;;;;;10.55;6.55;;;15.50;99.90;;;;;;5007814;28;20031;-77
2023/06/18 02:20:10;;;;;;;8.95;6.05;;;15.40;99.90;;;;;;4999681;28;20054;-73
2023/06/18 02:22:37;;;;;;;8.70;5.90;;;15.30;99.90;;;;;;4994458;28;20277;-75
2023/06/18 02:25:05;;;;;;;10.77;6.65;;;15.20;99.90;;;;;;5013043;28;20026;-76
2023/06/18 02:27:31;;;;;;;8.05;5.97;;;15.20;99.90;;;;;;4995543;28;20113;-75
2023/06/18 02:29:59;;;;;;;12.55;6.55;;;15.10;99.90;;;;;;5012548;28;20114;-75
2023/06/18 02:32:24;;;;;;;11.40;6.90;;;15.10;99.90;;;;;;5012269;28;20105;-76
2023/06/18 02:34:50;;;;;;;9.85;6.63;;;15.10;99.90;;;;;;5012279;28;20057;-74
2023/06/18 02:37:16;;;;;;;8.73;6.40;;;15.00;99.90;;;;;;5010541;28;20018;-74
2023/06/18 02:39:42;;;;;;;16.42;7.35;;;15.00;99.90;;;;;;5011863;28;20076;-75
2023/06/18 02:42:09;;;;;;;12.80;7.57;;;15.00;99.90;;;;;;5012247;28;20057;-75
2023/06/18 02:44:35;;;;;;;11.57;6.65;;;15.00;99.90;;;;;;5012107;28;20022;-74
2023/06/18 02:47:00;;;;;;;14.32;7.70;;;15.00;99.90;;;;;;5012124;28;20514;-75
2023/06/18 02:49:27;;;;;;;11.10;7.50;;;15.00;99.90;;;;;;5023819;28;20091;-74
2023/06/18 02:51:53;;;;;;;14.90;7.40;;;14.90;99.90;;;;;;5031810;28;20086;-75
2023/06/18 02:54:20;;;;;;;12.48;7.35;;;15.00;99.90;;;;;;5013428;28;20021;-75
2023/06/18 02:56:45;;;;;;;11.57;6.65;;;15.00;99.90;;;;;;5031542;28;20039;-74
2023/06/18 02:59:11;;;;;;;8.65;6.03;;;14.90;99.90;;;;;;5013704;28;20487;-74
2023/06/18 03:01:37;;;;;;;10.00;6.60;;;14.80;99.90;;;;;;5007517;28;20041;-74
2023/06/18 03:04:03;;;;;;;9.95;6.47;;;14.70;99.90;;;;;;5031418;28;20027;-75
2023/06/18 03:06:28;;;;;;;11.15;6.90;;;14.60;99.90;;;;;;5032238;28;20025;-75
2023/06/18 03:08:54;;;;;;;10.77;6.28;;;14.60;99.90;;;;;;5031869;28;20037;-74
2023/06/18 03:11:20;;;;;;;9.77;7.07;;;14.60;99.90;;;;;;5031495;28;20049;-74
2023/06/18 03:13:45;;;;;;;12.55;7.40;;;14.60;99.90;;;;;;5031434;28;20075;-72
2023/06/18 03:16:11;;;;;;;22.05;8.32;;;14.60;99.90;;;;;;5031758;28;20030;-73
2023/06/18 03:18:37;;;;;;;15.30;8.15;;;14.60;99.90;;;;;;5030576;28;20148;-73
2023/06/18 03:21:03;;;;;;;21.73;8.50;;;14.60;99.90;;;;;;5021949;28;20042;-73
2023/06/18 03:23:29;;;;;;;16.48;8.82;;;14.50;99.90;;;;;;5027552;28;20033;-73
2023/06/18 03:25:55;;;;;;;13.45;7.30;;;14.50;99.90;;;;;;5027784;28;20084;-73
2023/06/18 03:28:22;;;;;;;17.58;8.52;;;14.40;99.90;;;;;;5020380;28;20109;-74
2023/06/18 03:30:48;;;;;;;13.68;7.88;;;14.30;99.90;;;;;;5011470;28;20353;-75
2023/06/18 03:33:13;;;;;;;14.02;7.80;;;14.30;99.90;;;;;;5011338;28;20025;-74
2023/06/18 03:35:39;;;;;;;16.50;8.45;;;14.20;99.90;;;;;;5011042;28;20518;-74
2023/06/18 03:38:05;;;;;;;16.00;8.40;;;14.20;99.90;;;;;;5010863;28;20025;-73
2023/06/18 03:40:30;;;;;;;16.88;8.70;;;14.10;99.90;;;;;;5011089;28;20029;-74
2023/06/18 03:42:56;;;;;;;12.43;8.38;;;14.10;99.90;;;;;;5009836;28;20026;-74
2023/06/18 03:45:21;;;;;;;13.23;8.25;;;14.10;99.90;;;;;;5011564;28;20384;-74
2023/06/18 03:47:47;;;;;;;13.80;9.55;;;14.00;99.90;;;;;;5011445;28;20386;-73
2023/06/18 03:50:13;;;;;;;11.40;8.60;;;14.00;99.90;;;;;;5011361;28;20030;-73
2023/06/18 03:52:39;;;;;;;13.63;9.65;;;14.00;99.90;;;;;;5011260;28;20029;-74
2023/06/18 03:55:05;;;;;;;15.13;9.15;;;13.90;99.90;;;;;;5011415;28;20044;-74
2023/06/18 03:57:31;;;;;;;15.35;9.93;;;14.00;99.90;;;;;;5011306;28;20467;-74
2023/06/18 03:59:57;;;;;;;15.57;9.77;;;14.00;99.90;;;;;;5011366;28;20037;-74
2023/06/18 04:02:23;;;;;;;14.20;9.63;;;14.00;99.90;;;;;;5011241;28;20072;-74
2023/06/18 04:04:48;;;;;;;15.38;10.18;;;14.00;99.90;;;;;;5011418;28;20407;-74
2023/06/18 04:07:14;;;;;;;18.42;10.02;;;14.00;99.90;;;;;;5012191;28;20452;-74
2023/06/18 04:09:40;;;;;;;17.85;9.68;;;14.00;99.90;;;;;;5015167;28;20029;-74
2023/06/18 04:12:06;;;;;;;15.38;9.85;;;14.00;99.90;;;;;;5015224;28;20021;-74
2023/06/18 04:14:34;;;;;;;16.23;10.43;;;13.90;99.90;;;;;;5014942;28;20372;-74
2023/06/18 04:17:00;;;;;;;17.15;11.02;;;13.90;99.90;;;;;;4997839;28;20562;-74
2023/06/18 04:19:26;;;;;;;16.77;9.90;;;13.90;99.90;;;;;;5014494;28;20109;-73
2023/06/18 04:21:52;;;;;;;15.73;10.10;;;13.90;99.90;;;;;;5014922;28;20046;-74
2023/06/18 04:24:17;;;;;;;15.23;10.60;;;14.00;99.90;;;;;;4996970;28;20034;-75
2023/06/18 04:26:43;;;;;;;16.17;10.82;;;14.00;99.90;;;;;;4996879;28;20069;-74
2023/06/18 04:29:09;;;;;;;16.38;11.30;;;14.00;99.90;;;;;;5015137;28;20018;-74
2023/06/18 04:31:35;;;;;;;19.67;11.25;;;13.90;99.90;;;;;;4997893;28;20029;-74
2023/06/18 04:34:01;;;;;;;19.38;11.40;;;13.90;99.90;;;;;;5014522;28;20026;-74
2023/06/18 04:36:26;;;;;;;23.70;12.02;;;13.90;99.90;;;;;;5015118;28;20439;-74
2023/06/18 04:38:52;;;;;;;17.20;11.18;;;13.80;99.90;;;;;;4997425;28;20029;-74
2023/06/18 04:41:18;;;;;;;22.70;11.82;;;13.80;99.90;;;;;;5014837;28;20079;-74
2023/06/18 04:43:44;;;;;;;18.08;11.63;;;13.80;99.90;;;;;;5014658;28;20018;-74
2023/06/18 04:46:10;;;;;;;18.13;10.82;;;13.80;99.90;;;;;;5015015;28;20034;-74
2023/06/18 04:48:35;;;;;;;13.90;10.68;;;13.70;99.90;;;;;;5014498;28;20419;-74
2023/06/18 04:51:02;;;;;;;18.58;12.38;;;13.60;99.90;;;;;;5014713;28;20449;-73
2023/06/18 04:53:29;;;;;;;23.20;12.32;;;13.50;99.90;;;;;;4996855;28;20030;-73
2023/06/18 04:55:55;;;;;;;19.08;11.88;;;13.60;99.90;;;;;;4996337;28;20028;-74
2023/06/18 04:58:21;;;;;;;20.75;13.60;;;13.60;99.90;;;;;;5014451;28;20033;-74
2023/06/18 05:00:46;;;;;;;15.85;11.80;;;13.60;99.90;;;;;;5015272;28;20539;-74
2023/06/18 05:03:12;;;;;;;16.95;11.50;;;13.70;99.90;;;;;;5014304;28;20403;-74
2023/06/18 05:05:38;;;;;;;19.85;12.32;;;13.70;99.90;;;;;;5014050;28;20032;-74
2023/06/18 05:08:04;;;;;;;16.90;10.82;;;13.70;99.90;;;;;;4996524;28;20030;-74
2023/06/18 05:10:30;;;;;;;20.23;10.30;;;13.80;99.90;;;;;;5014335;28;20025;-74
2023/06/18 05:12:55;;;;;;;17.80;10.82;;;13.70;99.90;;;;;;5014676;28;20022;-74
2023/06/18 05:15:21;;;;;;;12.88;9.68;;;13.70;99.90;;;;;;5014582;28;20479;-74
2023/06/18 05:17:47;;;;;;;12.00;8.20;;;13.70;99.90;;;;;;4995945;28;20026;-74
2023/06/18 05:20:12;;;;;;;14.85;9.30;;;13.70;99.90;;;;;;4996121;28;20069;-74
2023/06/18 05:22:40;;;;;;;12.23;8.85;;;13.70;99.90;;;;;;5013919;28;20028;-74
2023/06/18 05:25:06;;;;;;;18.40;9.57;;;13.60;99.90;;;;;;5013761;28;20049;-73
2023/06/18 05:27:31;;;;;;;16.42;9.18;;;13.60;99.90;;;;;;5012649;28;20353;-73
2023/06/18 05:29:59;;;;;;;20.42;9.60;;;13.60;99.90;;;;;;5013999;28;20055;-74
2023/06/18 05:32:24;;;;;;;16.83;10.05;;;13.60;99.90;;;;;;5014413;28;20107;-72
2023/06/18 05:34:50;;;;;;;20.83;10.32;;;13.60;99.90;;;;;;5014756;28;20073;-73
2023/06/18 05:37:16;;;;;;;17.80;9.93;;;13.50;99.90;;;;;;5014135;28;20120;-73
2023/06/18 05:39:42;;;;;;;13.73;8.95;;;13.50;99.90;;;;;;5013602;28;20431;-74
2023/06/18 05:42:08;;;;;;;13.60;7.47;;;13.40;99.90;;;;;;5014092;28;20028;-74
2023/06/18 05:44:33;;;;;;;11.90;7.63;;;13.40;99.90;;;;;;5013567;28;20104;-74
2023/06/18 05:46:59;;;;;;;13.35;8.20;;;13.40;99.90;;;;;;5013472;28;20033;-73
2023/06/18 05:49:26;;;;;;;16.10;7.88;;;13.30;99.90;;;;;;4996080;28;20026;-73
2023/06/18 05:51:52;;;;;;;14.15;8.18;;;13.40;99.90;;;;;;5014167;28;20395;-73
2023/06/18 05:54:17;;;;;;;14.00;8.65;;;13.40;99.90;;;;;;5013240;28;20036;-74
2023/06/18 05:56:43;;;;;;;18.08;9.38;;;13.40;99.90;;;;;;5013647;28;20026;-74
2023/06/18 05:59:10;;;;;;;13.10;7.95;;;13.40;99.90;;;;;;5012951;28;20048;-74
2023/06/18 06:01:36;;;;;;;13.32;8.43;;;13.40;99.90;;;;;;4995503;28;20030;-74
2023/06/18 06:04:02;;;;;;;14.50;8.73;;;13.40;99.90;;;;;;5013057;28;20021;-74
2023/06/18 06:06:28;;;;;;;14.30;8.93;;;13.40;99.90;;;;;;5013621;28;20109;-74
2023/06/18 06:08:53;;;;;;;13.57;8.68;;;13.40;99.90;;;;;;5013356;28;20476;-74
2023/06/18 06:11:19;;;;;;;13.27;8.32;;;13.40;99.90;;;;;;5013674;28;20520;-74
2023/06/18 06:13:45;;;;;;;14.50;8.18;;;13.40;99.90;;;;;;5013541;28;20014;-74
2023/06/18 06:16:11;;;;;;;12.70;7.38;;;13.40;99.90;;;;;;4995597;28;20022;-74
2023/06/18 06:18:37;;;;;;;14.02;8.40;;;13.40;99.90;;;;;;5012583;28;20372;-73
2023/06/18 06:21:03;;;;;;;14.30;7.93;;;13.40;99.90;;;;;;5012984;28;20044;-73
2023/06/18 06:23:30;;;;;;;13.68;7.65;;;13.40;99.90;;;;;;5013013;28;20097;-74
2023/06/18 06:25:56;;;;;;;13.20;8.18;;;13.40;99.90;;;;;;5013619;28;20456;-74
2023/06/18 06:28:22;;;;;;;12.23;8.95;;;13.40;99.90;;;;;;5012939;28;20022;-74
2023/06/18 06:30:48;;;;;;;13.85;8.55;;;13.50;99.90;;;;;;5012388;28;20053;-74
2023/06/18 06:33:13;;;;;;;11.90;8.90;;;13.50;99.90;;;;;;5013090;28;20033;-73
2023/06/18 06:35:39;;;;;;;13.75;7.70;;;13.60;99.90;;;;;;5012926;28;20383;-73
2023/06/18 06:38:05;;;;;;;13.52;8.40;;;13.60;99.90;;;;;;5012724;28;20037;-74
2023/06/18 06:40:31;;;;;;;16.63;9.13;;;13.70;99.90;;;;;;5012958;28;20518;-73
2023/06/18 06:42:56;;;;;;;14.75;9.05;;;13.70;99.90;;;;;;5012814;28;20025;-73
2023/06/18 06:45:22;;;;;;;13.82;8.02;;;13.80;99.90;;;;;;5012939;28;20025;-73
2023/06/18 06:47:48;;;;;;;11.40;8.10;;;13.90;99.90;;;;;;5012351;28;20532;-74
2023/06/18 06:50:15;;;;;;;10.15;7.63;;;13.90;99.90;;;;;;5012370;28;20115;-74
2023/06/18 06:52:41;;;;;;;14.48;7.85;;;13.90;99.90;;;;;;4994997;28;20118;-74
2023/06/18 06:55:07;;;;;;;14.35;8.90;;;14.00;99.90;;;;;;4995032;28;20441;-73
2023/06/18 06:57:32;;;;;;;11.82;8.57;;;14.00;99.90;;;;;;5012026;28;20025;-74
2023/06/18 06:59:59;;;;;;;13.43;8.38;;;14.10;99.90;;;;;;5012295;28;20030;-74
2023/06/18 07:02:24;;;;;;;14.77;7.72;;;14.20;99.90;;;;;;5012607;28;20427;-74
2023/06/18 07:04:50;;;;;;;13.27;7.85;;;14.20;99.90;;;;;;5012793;28;20018;-74
2023/06/18 07:07:16;;;;;;;11.15;7.72;;;14.30;99.90;;;;;;5012524;28;20029;-74
2023/06/18 07:09:42;;;;;;;16.10;8.18;;;14.30;99.90;;;;;;5016868;28;20056;-74
2023/06/18 07:12:08;;;;;;;13.38;8.55;;;14.40;99.90;;;;;;5030410;28;20029;-73
2023/06/18 07:14:34;;;;;;;16.95;8.65;;;14.40;99.90;;;;;;5020147;28;20032;-74
2023/06/18 07:17:01;;;;;;;17.67;9.18;;;14.50;99.90;;;;;;5020729;28;20080;-74
2023/06/18 07:19:27;;;;;;;13.48;8.10;;;14.60;99.90;;;;;;5001417;28;20360;-74
2023/06/18 07:21:53;;;;;;;15.52;8.98;;;14.80;99.90;;;;;;5019463;28;20028;-74
2023/06/18 07:24:20;;;;;;;12.60;8.02;;;14.90;99.90;;;;;;5021801;28;20021;-74
2023/06/18 07:26:46;;;;;;;16.40;7.80;;;15.00;99.90;;;;;;5002342;28;20014;-74
2023/06/18 07:29:11;;;;;;;13.65;8.60;;;15.10;99.90;;;;;;5020023;28;20033;-74
2023/06/18 07:31:38;;;;;;;11.88;8.35;;;15.20;99.90;;;;;;5017997;28;20025;-74
2023/06/18 07:34:04;;;;;;;11.55;8.10;;;15.30;99.90;;;;;;5019416;28;20022;-74
2023/06/18 07:36:30;;;;;;;12.07;8.65;;;15.40;99.90;;;;;;5001694;28;20014;-74
2023/06/18 07:38:56;;;;;;;11.10;8.18;;;15.40;99.90;;;;;;5020038;28;20109;-74
2023/06/18 07:41:22;;;;;;;15.70;9.15;;;15.40;99.90;;;;;;5020009;28;20407;-74
2023/06/18 07:43:47;;;;;;;11.35;8.85;;;15.40;99.90;;;;;;5023950;28;20025;-74
2023/06/18 07:46:13;;;;;;;13.23;8.30;;;15.50;99.90;;;;;;5024145;28;20080;-74
2023/06/18 07:48:39;;;;;;;14.70;8.63;;;15.60;99.90;;;;;;5022858;28;20025;-74
2023/06/18 07:51:05;;;;;;;13.82;8.35;;;15.70;99.90;;;;;;5021774;28;20048;-74
2023/06/18 07:53:32;;;;;;;14.05;8.55;;;15.80;99.90;;;;;;5022773;28;20486;-74
2023/06/18 07:55:59;;;;;;;13.25;7.88;;;15.90;99.90;;;;;;5013771;28;20018;-74
2023/06/18 07:58:24;;;;;;;11.70;8.45;;;16.00;99.90;;;;;;5022768;28;20113;-74
2023/06/18 08:00:50;;;;;;;11.25;8.20;;;16.20;99.90;;;;;;5020559;28;20101;-74
2023/06/18 08:03:16;;;;;;;12.90;8.50;;;16.30;99.90;;;;;;5024555;28;20139;-74
2023/06/18 08:05:42;;;;;;;14.00;8.95;;;16.30;99.90;;;;;;5024095;28;20034;-74
2023/06/18 08:08:08;;;;;;;10.88;8.20;;;16.40;99.90;;;;;;5025685;28;20112;-74
2023/06/18 08:10:33;;;;;;;11.88;8.73;;;16.50;99.90;;;;;;5023859;28;20065;-75
2023/06/18 08:12:59;;;;;;;12.82;8.45;;;16.50;99.90;;;;;;5024405;28;20028;-74
2023/06/18 08:15:25;;;;;;;11.95;8.10;;;16.60;99.90;;;;;;5025526;28;20108;-75
2023/06/18 08:17:52;;;;;;;9.27;7.53;;;16.60;99.90;;;;;;5023313;28;20022;-74
2023/06/18 08:20:18;;;;;;;9.25;6.65;;;16.80;99.90;;;;;;5006371;28;20056;-73
2023/06/18 08:22:44;;;;;;;13.52;7.28;;;16.90;99.90;;;;;;5024995;28;20173;-73
2023/06/18 08:25:10;;;;;;;12.30;6.88;;;17.10;99.90;;;;;;5023110;28;20104;-72
2023/06/18 08:27:36;;;;;;;14.20;6.70;;;17.30;99.90;;;;;;5024828;28;20014;-73
2023/06/18 08:30:02;;;;;;;11.20;7.32;;;17.50;99.90;;;;;;5024645;28;20026;-72
2023/06/18 08:32:28;;;;;;;9.48;6.07;;;17.60;99.90;;;;;;5022899;28;20013;-75
2023/06/18 08:34:53;;;;;;;11.05;7.80;;;17.80;99.90;;;;;;5024684;28;20021;-73
2023/06/18 08:37:19;;;;;;;9.80;6.25;;;17.90;99.90;;;;;;5022797;28;20107;-73
2023/06/18 08:39:44;;;;;;;8.50;6.80;;;18.10;99.90;;;;;;5025463;28;20021;-73
2023/06/18 08:42:17;;;;;;;11.00;7.00;;;18.30;99.90;;;;;;5022666;28;20030;-73
2023/06/18 08:44:45;;;;;;;12.20;6.93;;;18.50;99.90;;;;;;5014047;28;20021;-73
2023/06/18 08:47:11;;;;;;;8.73;6.72;;;18.60;99.90;;;;;;5019747;28;20371;-73
2023/06/18 08:49:41;;;;;;;9.63;6.70;;;18.70;99.90;;;;;;5022861;28;20076;-73
2023/06/18 08:52:12;;;;;;;10.00;7.15;;;18.90;99.90;;;;;;5022801;28;20018;-73
2023/06/18 08:54:38;;;;;;;10.40;6.95;;;19.00;99.90;;;;;;5020697;28;20075;-72
2023/06/18 08:57:21;;;;;;;8.02;6.65;;;19.10;99.90;;;;;;5022545;28;20464;-73
2023/06/18 08:59:47;;;;;;;11.32;6.45;;;19.20;99.90;;;;;;5022432;28;20472;-74
2023/06/18 09:02:13;;;;;;;9.18;6.05;;;19.40;99.90;;;;;;5006254;28;20026;-74
2023/06/18 09:04:39;;;;;;;13.20;6.93;;;19.60;99.90;;;;;;5008863;28;20414;-74
2023/06/18 09:07:05;;;;;;;11.32;7.00;;;19.80;99.90;;;;;;5024754;28;20022;-74
2023/06/18 09:09:31;;;;;;;9.80;6.38;;;20.00;99.90;;;;;;5022506;28;20040;-75
2023/06/18 09:11:57;;;;;;;10.23;6.13;;;20.10;99.90;;;;;;5022968;28;20349;-75
2023/06/18 09:14:24;;;;;;;10.18;6.50;;;20.30;99.90;;;;;;5025652;28;20018;-74
2023/06/18 09:16:51;;;;;;;9.13;6.47;;;20.50;99.90;;;;;;5025533;28;20049;-75
2023/06/18 09:19:18;;;;;;;8.60;5.50;;;20.70;99.90;;;;;;5024977;28;20357;-73
2023/06/18 09:21:45;;;;;;;12.10;5.90;;;20.90;99.90;;;;;;5022666;28;20480;-75
2023/06/18 09:24:23;;;;;;;10.13;6.07;;;21.00;99.90;;;;;;5003681;28;20030;-76
2023/06/18 09:27:04;;;;;;;10.05;5.72;;;21.20;99.90;;;;;;5024068;28;20421;-73
2023/06/18 09:29:33;;;;;;;9.82;5.60;;;21.20;99.90;;;;;;5024105;28;20064;-75
2023/06/18 09:32:13;;;;;;;7.18;5.15;;;21.30;99.90;;;;;;5005711;28;20076;-75
2023/06/18 09:34:40;;;;;;;;;;;21.40;99.90;;;;;;5011602;28;20022;-75
2023/06/18 09:37:07;;;;;;;11.13;5.22;;;21.50;99.90;;;;;;5000946;28;19928;-75
2023/06/18 09:39:35;;;;;;;7.93;5.10;;;21.60;99.90;;;;;;5024671;28;20459;-75
2023/06/18 09:42:09;;;;;;;13.13;6.13;;;21.90;99.80;;;;;;5022524;28;20402;-75
2023/06/18 09:44:35;;;;;;;13.15;6.40;;;22.00;98.10;;;;;;5021988;28;20076;-75
2023/06/18 09:47:03;;;;;;;9.32;6.03;;;22.10;97.10;;;;;;5021869;28;20024;-75
2023/06/18 09:49:30;;;;;;;7.10;4.88;;;22.30;96.30;;;;;;5007768;28;20029;-74
2023/06/18 09:51:55;;;;;;;9.70;4.80;;;22.30;95.20;;;;;;5024017;28;20019;-75
2023/06/18 09:54:21;;;;;;;9.73;5.57;;;22.40;94.50;;;;;;5024774;28;20025;-76
2023/06/18 09:57:02;;;;;;;10.95;6.90;;;22.50;94.20;;;;;;5019256;28;20444;-76
2023/06/18 09:59:29;;;;;;;9.77;5.45;;;22.70;93.90;;;;;;5016540;28;20026;-76
2023/06/18 10:01:55;;;;;;;9.93;6.07;;;22.80;93.30;;;;;;5024634;28;20057;-76
2023/06/18 10:04:21;;;;;;;12.50;7.82;;;22.90;92.90;;;;;;5021990;28;20022;-76
2023/06/18 10:06:54;;;;;;;15.95;8.43;;;22.90;92.60;;;;;;5022738;28;20403;-75
2023/06/18 10:09:20;;;;;;;13.77;8.00;;;23.00;92.40;;;;;;5022657;28;20022;-77
2023/06/18 10:11:50;;;;;;;18.08;8.45;;;23.00;92.10;;;;;;5021421;28;20510;-77
2023/06/18 10:14:21;;;;;;;16.23;9.83;;;23.00;91.60;;;;;;5004560;28;20052;-76
2023/06/18 10:16:50;;;;;;;16.15;8.82;;;23.00;91.60;;;;;;5021107;28;20021;-76
2023/06/18 10:19:39;;;;;;;17.63;9.93;;;23.10;91.60;;;;;;5022413;28;20043;-77
2023/06/18 10:22:07;;;;;;;16.60;9.43;;;23.20;91.40;;;;;;5003829;28;20404;-78
2023/06/18 10:24:50;;;;;;;16.85;9.27;;;23.30;91.20;;;;;;5003794;28;20022;-75
2023/06/18 10:27:17;;;;;;;19.23;9.30;;;23.50;91.30;;;;;;5005033;28;20115;-76
2023/06/18 10:29:43;;;;;;;16.52;9.32;;;23.80;91.00;;;;;;5002087;28;20103;-77
2023/06/18 10:32:10;;;;;;;15.77;8.57;;;23.90;90.30;;;;;;4978189;28;20461;-75
2023/06/18 10:34:37;;;;;;;15.57;10.18;;;24.00;90.00;;;;;;4991878;28;20337;-77
2023/06/18 10:37:03;;;;;;;17.50;9.80;;;24.00;89.20;;;;;;4998376;28;20022;-76
2023/06/18 10:39:29;;;;;;;16.95;10.02;;;23.90;88.60;;;;;;4999776;28;20456;-76
2023/06/18 10:42:00;;;;;;;18.65;9.95;;;23.80;88.30;;;;;;5008523;28;20444;-77
2023/06/18 10:44:47;;;;;;;15.57;10.07;;;23.80;88.60;;;;;;5006893;28;20018;-76
2023/06/18 10:47:32;;;;;;;17.23;10.45;;;23.90;88.90;;;;;;4991467;28;20048;-76
2023/06/18 10:50:07;;;;;;;15.98;11.20;;;23.90;89.10;;;;;;5000852;28;20026;-74
2023/06/18 10:52:34;;;;;;;18.20;11.38;;;23.90;89.10;;;;;;5000930;28;20021;-77
2023/06/18 10:55:24;;;;;;;17.17;11.88;;;23.90;88.70;;;;;;4985201;28;20448;-74
2023/06/18 10:57:59;;;;;;;17.83;10.68;;;24.00;88.70;;;;;;4993042;28;20038;-77
2023/06/18 11:00:31;;;;;;;17.10;11.27;;;24.10;89.30;;;;;;4991201;28;20125;-76
2023/06/18 11:03:04;;;;;;;20.73;12.70;;;24.30;89.50;;;;;;4998388;28;20022;-77
2023/06/18 11:05:33;;;;;;;17.60;11.43;;;24.50;87.50;;;;;;4986186;28;20069;-77
2023/06/18 11:08:05;;;;;;;15.98;10.85;;;24.60;87.90;;;;;;5005744;28;20464;-76
2023/06/18 11:10:36;;;;;;;18.00;11.02;;;24.80;87.20;;;;;;5012907;28;20100;-76
2023/06/18 11:13:07;;;;;;;23.13;11.48;;;24.90;86.00;;;;;;5012983;28;20060;-76
2023/06/18 11:15:33;;;;;;;;;;;25.00;85.30;;;;;;5013355;28;20017;-76
2023/06/18 11:18:01;;;;;;;20.30;12.38;;;25.20;84.70;;;;;;5012273;28;19917;-76
2023/06/18 11:20:30;;;;;;;19.63;13.30;;;25.30;84.70;;;;;;5017441;28;20048;-76
2023/06/18 11:22:58;;;;;;;19.83;13.35;;;25.30;84.00;;;;;;5032508;28;20028;-76
2023/06/18 11:25:25;;;;;;;20.00;14.18;;;25.40;83.20;;;;;;5031784;28;20018;-76
2023/06/18 11:27:54;;;;;;;19.48;13.10;;;25.60;82.70;;;;;;5031621;28;20036;-76
2023/06/18 11:30:20;;;;;;;19.75;13.55;;;25.60;82.30;;;;;;5013406;28;20059;-77
2023/06/18 11:32:46;;;;;;;22.13;13.05;;;25.70;81.70;;;;;;5029672;28;20052;-76
2023/06/18 11:35:13;;;;;;;25.85;15.00;;;25.80;81.80;;;;;;5032476;28;20022;-78
2023/06/18 11:37:40;;;;;;;24.75;14.68;;;26.00;81.20;;;;;;5032604;28;20021;-78
2023/06/18 11:40:07;;;;;;;18.90;13.93;;;26.00;81.10;;;;;;5032590;28;20112;-77
2023/06/18 11:42:34;;;;;;;21.38;14.43;;;26.00;80.90;;;;;;5032365;28;20101;-76
2023/06/18 11:45:04;;;;;;;19.15;13.15;;;26.00;80.60;;;;;;5014721;28;20036;-75
2023/06/18 11:47:30;;;;;;;;;;;25.90;80.30;;;;;;5014341;28;20057;-77
2023/06/18 11:49:57;;;;;;;21.35;11.45;;;25.90;80.40;;;;;;5014390;28;19952;-78
2023/06/18 11:52:25;;;;;;;23.17;14.43;;;26.00;80.70;;;;;;5032351;28;20034;-76
2023/06/18 11:54:55;;;;;;;19.33;14.52;;;26.00;80.40;;;;;;5013602;28;20038;-77
2023/06/18 11:57:22;;;;;;;17.88;13.57;;;26.10;80.40;;;;;;5032021;28;20029;-76
2023/06/18 11:59:53;;;;;;;22.63;14.20;;;26.10;80.20;;;;;;5031904;28;20037;-75
2023/06/18 12:02:26;;;;;;;19.05;12.63;;;26.20;80.30;;;;;;5031990;28;20375;-76
2023/06/18 12:04:57;;;;;;;17.13;11.90;;;26.10;79.60;;;;;;5014197;28;20017;-76
2023/06/18 12:07:24;;;;;;;23.17;15.40;;;26.10;79.50;;;;;;5031794;28;20026;-75
2023/06/18 12:09:53;;;;;;;22.85;15.45;;;26.00;79.40;;;;;;5031667;28;20029;-76
2023/06/18 12:12:36;;;;;;;21.63;13.82;;;25.90;79.90;;;;;;5031542;28;20021;-77
2023/06/18 12:15:30;;;;;;;22.02;15.05;;;25.90;80.40;;;;;;5032097;28;20044;-78
2023/06/18 12:17:58;;;;;;;21.15;12.85;;;25.90;80.50;;;;;;5031684;28;20025;-75
2023/06/18 12:20:28;;;;;;;22.67;15.68;;;25.80;81.50;;;;;;5013855;28;20044;-76
2023/06/18 12:22:55;;;;;;;19.80;15.02;;;25.80;80.80;;;;;;5032731;28;20438;-76
2023/06/18 12:25:22;;;;;;;21.45;15.98;;;25.60;80.80;;;;;;5031868;28;20371;-76
2023/06/18 12:27:50;;;;;;;23.40;13.88;;;25.60;81.20;;;;;;5031051;28;20025;-76
2023/06/18 12:30:17;;;;;;;21.92;15.43;;;25.50;81.80;;;;;;5030437;28;20460;-74
2023/06/18 12:33:01;;;;;;;20.38;14.70;;;25.40;82.30;;;;;;5035301;28;20112;-75
2023/06/18 12:35:27;;;;;;;19.08;12.48;;;25.30;82.20;;;;;;5034852;28;20474;-76
2023/06/18 12:37:53;;;;;;;19.17;13.13;;;25.20;82.50;;;;;;5017644;28;20029;-77
2023/06/18 12:40:23;;;;;;;19.23;12.88;;;25.20;82.60;;;;;;5016603;28;20030;-76